createdAt,value
2019-05-22T00:00:24.052Z,21.50
2019-05-22T00:02:53.691Z,20.37
2019-05-22T00:05:24.281Z,25.10
2019-05-22T00:07:53.751Z,20.52
2019-05-22T00:10:26.183Z,19.98
2019-05-22T00:12:57.743Z,20.62
2019-05-22T00:15:26.874Z,20.60
2019-05-22T00:17:57.866Z,20.00
2019-05-22T00:20:27.343Z,19.95
2019-05-22T00:22:57.906Z,19.73
2019-05-22T00:25:28.926Z,23.02
2019-05-22T00:27:59.848Z,18.45
2019-05-22T00:30:31.410Z,18.73
2019-05-22T00:33:00.894Z,17.73
2019-05-22T00:35:31.338Z,21.42
2019-05-22T00:38:01.935Z,17.45
2019-05-22T00:40:32.891Z,18.55
2019-05-22T00:43:05.485Z,18.45
2019-05-22T00:45:34.251Z,22.45
2019-05-22T00:48:03.446Z,19.48
2019-05-22T00:50:34.900Z,18.48
2019-05-22T00:53:22.382Z,18.32
2019-05-22T00:55:53.036Z,19.37
2019-05-22T00:58:30.148Z,18.48
2019-05-22T01:01:05.050Z,18.48
2019-05-22T01:03:34.183Z,18.40
2019-05-22T01:06:05.299Z,17.65
2019-05-22T01:08:37.591Z,17.82
2019-05-22T01:11:07.616Z,18.55
2019-05-22T01:13:37.538Z,20.20
2019-05-22T01:16:07.867Z,18.67
2019-05-22T01:18:39.077Z,19.42
2019-05-22T01:21:07.934Z,18.57
2019-05-22T01:23:36.783Z,18.07
2019-05-22T01:26:08.471Z,17.95
2019-05-22T01:28:37.430Z,16.97
2019-05-22T01:31:10.758Z,18.35
2019-05-22T01:33:57.161Z,17.23
2019-05-22T01:36:30.996Z,17.25
2019-05-22T01:39:04.484Z,15.58
2019-05-22T01:41:36.283Z,16.10
2019-05-22T01:44:07.322Z,16.75
2019-05-22T01:46:39.700Z,17.85
2019-05-22T01:49:12.411Z,14.75
2019-05-22T01:51:42.523Z,16.12
2019-05-22T01:54:11.415Z,16.73
2019-05-22T01:56:41.805Z,18.60
2019-05-22T01:59:11.322Z,18.90
2019-05-22T02:01:40.349Z,16.57
2019-05-22T02:04:10.057Z,18.52
2019-05-22T02:06:39.551Z,16.25
2019-05-22T02:09:21.868Z,16.15
2019-05-22T02:11:54.358Z,17.20
2019-05-22T02:16:56.878Z,16.62
2019-05-22T02:19:25.197Z,20.90
2019-05-22T02:21:55.218Z,20.90
2019-05-22T02:24:24.012Z,20.95
2019-05-22T02:26:54.523Z,16.97
2019-05-22T02:29:23.655Z,16.65
2019-05-22T02:31:55.445Z,15.72
2019-05-22T02:34:24.843Z,17.20
2019-05-22T02:36:54.201Z,16.70
2019-05-22T02:39:30.935Z,16.25
2019-05-22T02:42:12.056Z,20.60
2019-05-22T02:44:41.983Z,16.55
2019-05-22T02:47:19.561Z,16.52
2019-05-22T02:49:43.056Z,18.95
2019-05-22T02:52:13.539Z,20.65
2019-05-22T02:54:43.168Z,18.00
2019-05-22T02:57:13.079Z,22.55
2019-05-22T02:59:42.388Z,18.82
2019-05-22T03:02:14.092Z,14.90
2019-05-22T03:04:59.490Z,17.73
2019-05-22T03:07:30.347Z,18.10
2019-05-22T03:10:01.932Z,14.93
2019-05-22T03:12:32.843Z,12.63
2019-05-22T03:15:02.497Z,13.28
2019-05-22T03:17:32.400Z,13.48
2019-05-22T03:20:04.847Z,11.48
2019-05-22T03:25:14.456Z,13.08
2019-05-22T03:27:49.442Z,12.63
2019-05-22T03:30:27.166Z,12.70
2019-05-22T03:32:57.143Z,13.95
2019-05-22T03:35:28.155Z,17.05
2019-05-22T03:37:59.222Z,13.62
2019-05-22T03:40:31.093Z,11.50
2019-05-22T03:43:02.715Z,11.40
2019-05-22T03:45:33.067Z,15.13
2019-05-22T03:48:04.757Z,20.08
2019-05-22T03:50:34.025Z,13.22
2019-05-22T03:53:17.993Z,14.83
2019-05-22T03:55:49.283Z,14.68
2019-05-22T03:58:18.922Z,16.15
2019-05-22T04:00:50.649Z,15.40
2019-05-22T04:03:21.161Z,11.03
2019-05-22T04:05:50.606Z,19.90
2019-05-22T04:08:22.963Z,13.03
2019-05-22T04:11:02.225Z,13.45
2019-05-22T04:13:33.071Z,18.48
2019-05-22T04:16:05.078Z,12.70
2019-05-22T04:18:35.986Z,14.10
2019-05-22T04:21:06.187Z,16.15
2019-05-22T04:23:36.137Z,18.40
2019-05-22T04:26:08.886Z,12.82
2019-05-22T04:28:49.558Z,10.55
2019-05-22T04:31:19.405Z,15.13
2019-05-22T04:33:48.335Z,13.68
2019-05-22T04:36:17.179Z,16.20
2019-05-22T04:38:46.845Z,16.40
2019-05-22T04:41:16.966Z,18.70
2019-05-22T04:43:45.655Z,15.08
2019-05-22T04:46:14.502Z,17.95
2019-05-22T04:48:46.062Z,22.98
2019-05-22T04:51:24.192Z,12.95
2019-05-22T04:53:54.110Z,15.85
2019-05-22T04:56:24.491Z,9.20
2019-05-22T04:58:54.870Z,10.28
2019-05-22T05:01:24.652Z,11.25
2019-05-22T05:03:56.374Z,12.47
2019-05-22T05:06:26.578Z,12.43
2019-05-22T05:08:56.581Z,14.98
2019-05-22T05:11:25.562Z,11.53
2019-05-22T05:13:54.979Z,12.95
2019-05-22T05:16:23.683Z,13.48
2019-05-22T05:18:52.598Z,15.25
2019-05-22T05:21:21.279Z,15.28
2019-05-22T05:23:50.052Z,18.50
2019-05-22T05:26:19.546Z,18.30
2019-05-22T05:28:48.234Z,13.32
2019-05-22T05:31:17.631Z,16.55
2019-05-22T05:34:01.339Z,15.93
2019-05-22T05:36:30.758Z,15.48
2019-05-22T05:39:00.538Z,15.13
2019-05-22T05:41:30.190Z,20.90
2019-05-22T05:43:59.813Z,12.15
2019-05-22T05:46:28.953Z,10.75
2019-05-22T05:48:57.588Z,10.68
2019-05-22T05:51:29.271Z,12.78
2019-05-22T05:54:07.340Z,13.05
2019-05-22T05:56:39.589Z,14.95
2019-05-22T05:59:09.383Z,13.03
2019-05-22T06:01:40.641Z,12.75
2019-05-22T06:04:10.246Z,15.95
2019-05-22T06:06:42.004Z,13.13
2019-05-22T06:09:14.849Z,17.60
2019-05-22T06:11:56.379Z,13.78
2019-05-22T06:14:30.708Z,12.30
2019-05-22T06:17:26.293Z,11.05
2019-05-22T06:20:12.052Z,17.45
2019-05-22T06:22:46.043Z,13.60
2019-05-22T06:25:16.694Z,16.23
2019-05-22T06:27:49.519Z,17.87
2019-05-22T06:30:21.723Z,15.38
2019-05-22T06:33:13.121Z,22.87
2019-05-22T06:35:44.730Z,20.12
2019-05-22T06:38:28.947Z,15.47
2019-05-22T06:40:58.886Z,15.93
2019-05-22T06:43:31.586Z,24.82
2019-05-22T06:46:00.659Z,16.02
2019-05-22T06:48:29.789Z,26.57
2019-05-22T06:50:58.531Z,22.70
2019-05-22T06:53:27.494Z,24.82
2019-05-22T06:55:57.295Z,18.27
2019-05-22T06:58:26.670Z,22.05
2019-05-22T07:01:02.532Z,14.75
2019-05-22T07:03:31.042Z,19.67
2019-05-22T07:06:01.015Z,24.70
2019-05-22T07:08:30.033Z,16.17
2019-05-22T07:10:59.076Z,16.60
2019-05-22T07:13:28.404Z,15.45
2019-05-22T07:15:58.566Z,12.47
2019-05-22T07:18:29.179Z,16.45
2019-05-22T07:20:59.954Z,14.90
2019-05-22T07:23:29.463Z,15.30
2019-05-22T07:25:59.053Z,13.48
2019-05-22T07:28:29.085Z,20.75
2019-05-22T07:30:58.825Z,16.70
2019-05-22T07:33:27.910Z,15.35
2019-05-22T07:36:09.539Z,26.10
2019-05-22T07:38:28.572Z,17.23
2019-05-22T07:40:58.264Z,13.32
2019-05-22T07:43:28.310Z,14.23
2019-05-22T07:45:57.854Z,11.00
2019-05-22T07:48:27.753Z,11.68
2019-05-22T07:50:57.739Z,18.82
2019-05-22T07:53:26.802Z,13.28
2019-05-22T07:55:57.837Z,11.40
2019-05-22T07:58:29.797Z,10.78
2019-05-22T08:01:01.680Z,12.13
2019-05-22T08:03:32.753Z,22.50
2019-05-22T08:06:01.673Z,8.73
2019-05-22T08:08:33.574Z,13.70
2019-05-22T08:11:03.378Z,11.15
2019-05-22T08:13:33.272Z,12.90
2019-05-22T08:16:02.674Z,8.93
2019-05-22T08:18:33.351Z,8.13
2019-05-22T08:21:02.916Z,15.15
2019-05-22T08:23:32.610Z,12.43
2019-05-22T08:26:02.019Z,14.13
2019-05-22T08:28:32.353Z,11.45
2019-05-22T08:31:02.382Z,10.38
2019-05-22T08:33:34.638Z,16.12
2019-05-22T08:38:33.962Z,14.35
2019-05-22T08:41:05.536Z,12.28
2019-05-22T08:43:55.936Z,11.20
2019-05-22T08:46:07.110Z,13.58
2019-05-22T08:48:38.647Z,14.35
2019-05-22T08:51:09.019Z,7.85
2019-05-22T08:53:47.292Z,13.43
2019-05-22T08:56:09.861Z,11.38
2019-05-22T08:58:39.833Z,7.72
2019-05-22T09:01:10.492Z,8.68
2019-05-22T09:03:39.709Z,10.65
2019-05-22T09:06:09.493Z,16.80
2019-05-22T09:08:38.248Z,10.05
2019-05-22T09:11:07.155Z,7.78
2019-05-22T09:13:36.839Z,8.80
2019-05-22T09:16:06.299Z,6.78
2019-05-22T09:18:35.339Z,8.90
2019-05-22T09:21:04.602Z,8.68
2019-05-22T09:23:35.752Z,7.58
2019-05-22T09:26:06.602Z,10.40
2019-05-22T09:28:36.134Z,10.32
2019-05-22T09:31:05.728Z,5.85
2019-05-22T09:33:36.134Z,11.08
2019-05-22T09:36:06.807Z,10.60
2019-05-22T09:38:35.790Z,13.88
2019-05-22T09:41:05.217Z,10.53
2019-05-22T09:43:34.378Z,6.42
2019-05-22T09:46:03.434Z,6.72
2019-05-22T09:48:34.526Z,12.05
2019-05-22T09:51:03.381Z,8.15
2019-05-22T09:53:32.785Z,10.95
2019-05-22T09:56:03.805Z,8.83
2019-05-22T09:58:33.289Z,5.83
2019-05-22T10:01:02.563Z,7.95
2019-05-22T10:03:32.142Z,9.80
2019-05-22T10:06:01.558Z,8.40
2019-05-22T10:08:31.104Z,6.10
2019-05-22T10:11:00.374Z,8.78
2019-05-22T10:13:29.540Z,7.12
2019-05-22T10:15:58.994Z,9.43
2019-05-22T10:18:27.730Z,8.38
2019-05-22T10:20:57.506Z,5.47
2019-05-22T10:23:27.022Z,12.53
2019-05-22T10:25:55.971Z,9.23
2019-05-22T10:28:24.620Z,10.55
2019-05-22T10:30:54.403Z,7.58
2019-05-22T10:33:24.354Z,6.55
2019-05-22T10:35:53.387Z,14.28
2019-05-22T10:38:22.487Z,7.60
2019-05-22T10:40:51.493Z,6.70
2019-05-22T10:43:20.924Z,11.33
2019-05-22T10:45:49.905Z,8.30
2019-05-22T10:48:19.115Z,8.03
2019-05-22T10:50:47.765Z,8.00
2019-05-22T10:53:32.211Z,8.15
2019-05-22T10:55:46.813Z,6.37
2019-05-22T10:58:15.651Z,13.65
2019-05-22T11:00:44.511Z,7.15
2019-05-22T11:03:16.264Z,8.50
2019-05-22T11:05:45.545Z,10.03
2019-05-22T11:08:14.702Z,10.08
2019-05-22T11:10:45.240Z,6.50
2019-05-22T11:13:14.106Z,6.25
2019-05-22T11:15:44.959Z,6.00
2019-05-22T11:18:14.008Z,6.70
2019-05-22T11:20:43.923Z,6.10
2019-05-22T11:23:13.241Z,10.68
2019-05-22T11:25:42.455Z,10.85
2019-05-22T11:28:11.122Z,5.85
2019-05-22T11:30:40.729Z,8.48
2019-05-22T11:33:10.304Z,4.45
2019-05-22T11:35:39.978Z,7.10
2019-05-22T11:38:09.525Z,4.87
2019-05-22T11:40:39.495Z,6.87
2019-05-22T11:43:09.451Z,8.13
2019-05-22T11:45:38.573Z,11.57
2019-05-22T11:48:08.547Z,9.85
2019-05-22T11:50:38.462Z,7.00
2019-05-22T11:53:07.167Z,11.40
2019-05-22T11:55:44.804Z,14.45
2019-05-22T11:58:08.485Z,10.15
2019-05-22T12:00:37.211Z,14.30
2019-05-22T12:03:06.690Z,7.00
2019-05-22T12:05:36.106Z,9.53
2019-05-22T12:08:06.448Z,11.28
2019-05-22T12:10:37.417Z,4.67
2019-05-22T12:13:07.680Z,7.78
2019-05-22T12:15:37.199Z,8.65
2019-05-22T12:18:07.043Z,6.70
2019-05-22T12:20:36.439Z,10.38
2019-05-22T12:23:05.425Z,5.00
2019-05-22T12:25:34.251Z,8.28
2019-05-22T12:28:03.169Z,7.33
2019-05-22T12:30:32.136Z,17.23
2019-05-22T12:33:01.191Z,18.92
2019-05-22T12:35:31.356Z,11.17
2019-05-22T12:38:01.405Z,6.35
2019-05-22T12:40:33.899Z,7.45
2019-05-22T12:43:03.530Z,11.05
2019-05-22T12:45:33.794Z,7.55
2019-05-22T12:48:04.161Z,15.20
2019-05-22T12:50:33.961Z,10.30
2019-05-22T12:53:05.738Z,12.77
2019-05-22T12:55:35.076Z,10.55
2019-05-22T12:58:05.845Z,9.20
2019-05-22T13:00:36.335Z,10.78
2019-05-22T13:03:08.654Z,10.55
2019-05-22T13:05:39.839Z,14.18
2019-05-22T13:08:11.605Z,11.75
2019-05-22T13:10:40.391Z,14.03
2019-05-22T13:13:09.999Z,10.40
2019-05-22T13:15:40.500Z,16.40
2019-05-22T13:18:11.034Z,15.48
2019-05-22T13:20:44.661Z,9.65
2019-05-22T13:23:13.885Z,13.00
2019-05-22T13:25:43.862Z,12.07
2019-05-22T13:28:18.081Z,16.40
2019-05-22T13:30:50.192Z,14.15
2019-05-22T13:33:22.504Z,12.53
2019-05-22T13:35:52.211Z,12.53
2019-05-22T13:38:21.383Z,9.88
2019-05-22T13:40:51.916Z,15.40
2019-05-22T13:43:23.025Z,18.92
2019-05-22T13:45:52.249Z,26.00
2019-05-22T13:48:21.354Z,12.55
2019-05-22T13:50:51.309Z,24.05
2019-05-22T13:53:20.585Z,11.93
2019-05-22T13:55:49.625Z,10.43
2019-05-22T13:58:21.326Z,17.60
2019-05-22T14:03:20.958Z,11.08
2019-05-22T14:05:51.873Z,15.45
2019-05-22T14:08:22.099Z,27.73
2019-05-22T14:10:53.161Z,11.30
2019-05-22T14:13:24.499Z,14.50
2019-05-22T14:15:56.887Z,15.65
2019-05-22T14:18:24.723Z,17.92
2019-05-22T14:20:53.447Z,27.05
2019-05-22T14:23:22.187Z,17.85
2019-05-22T14:25:51.892Z,12.88
2019-05-22T14:28:22.561Z,18.82
2019-05-22T14:30:52.460Z,10.23
2019-05-22T14:33:22.027Z,13.88
2019-05-22T14:35:52.772Z,19.07
2019-05-22T14:38:21.832Z,21.17
2019-05-22T14:40:51.057Z,19.07
2019-05-22T14:43:21.583Z,13.28
2019-05-22T14:45:50.692Z,13.15
2019-05-22T14:48:19.944Z,9.05
2019-05-22T14:50:49.236Z,24.43
2019-05-22T14:53:18.343Z,10.18
2019-05-22T14:55:48.259Z,15.23
2019-05-22T14:58:18.091Z,6.78
2019-05-22T15:00:48.962Z,13.30
2019-05-22T15:03:19.378Z,12.50
2019-05-22T15:05:48.059Z,13.93
2019-05-22T15:08:16.767Z,11.53
2019-05-22T15:10:46.297Z,16.02
2019-05-22T15:13:16.380Z,11.00
2019-05-22T15:15:47.262Z,16.62
2019-05-22T15:18:16.493Z,12.47
2019-05-22T15:20:47.338Z,12.70
2019-05-22T15:23:16.506Z,17.23
2019-05-22T15:25:45.449Z,18.67
2019-05-22T15:28:14.824Z,18.92
2019-05-22T15:30:44.046Z,13.43
2019-05-22T15:33:13.459Z,20.10
2019-05-22T15:35:43.284Z,15.25
2019-05-22T15:38:12.892Z,10.85
2019-05-22T15:40:41.633Z,19.90
2019-05-22T15:43:11.639Z,22.52
2019-05-22T15:45:42.229Z,15.18
2019-05-22T15:48:34.972Z,18.52
2019-05-22T15:51:07.853Z,16.80
2019-05-22T15:53:40.235Z,21.02
2019-05-22T15:56:10.680Z,17.82
2019-05-22T15:58:42.766Z,17.35
2019-05-22T16:01:15.223Z,13.75
2019-05-22T16:03:47.011Z,18.48
2019-05-22T16:08:45.216Z,22.27
2019-05-22T16:11:16.979Z,10.80
2019-05-22T16:13:48.242Z,17.62
2019-05-22T16:18:47.419Z,11.40
2019-05-22T16:21:18.158Z,11.28
2019-05-22T16:23:48.187Z,8.38
2019-05-22T16:26:18.911Z,12.35
2019-05-22T16:28:49.732Z,14.17
2019-05-22T16:31:20.539Z,9.00
2019-05-22T16:33:52.031Z,14.35
2019-05-22T16:38:51.922Z,9.08
2019-05-22T16:41:22.662Z,14.65
2019-05-22T16:43:52.366Z,10.82
2019-05-22T16:46:22.090Z,15.70
2019-05-22T16:48:52.054Z,15.40
2019-05-22T16:51:22.318Z,10.75
2019-05-22T16:53:56.936Z,11.68
2019-05-22T16:56:27.906Z,12.68
2019-05-22T16:58:57.549Z,10.93
2019-05-22T17:01:28.036Z,16.25
2019-05-22T17:03:59.598Z,9.20
2019-05-22T17:06:29.382Z,9.00
2019-05-22T17:09:01.068Z,9.15
2019-05-22T17:11:31.451Z,7.40
2019-05-22T17:14:03.575Z,8.30
2019-05-22T17:16:34.590Z,11.22
2019-05-22T17:19:25.151Z,8.70
2019-05-22T17:21:37.201Z,8.38
2019-05-22T17:24:09.635Z,10.43
2019-05-22T17:26:38.795Z,7.97
2019-05-22T17:29:08.028Z,7.55
2019-05-22T17:31:42.770Z,10.53
2019-05-22T17:34:29.719Z,8.98
2019-05-22T17:36:59.291Z,10.78
2019-05-22T17:39:30.640Z,9.10
2019-05-22T17:42:00.356Z,13.55
2019-05-22T17:44:29.968Z,6.67
2019-05-22T17:46:59.742Z,10.78
2019-05-22T17:49:29.335Z,11.48
2019-05-22T17:51:58.410Z,10.40
2019-05-22T17:54:28.297Z,11.43
2019-05-22T17:57:00.908Z,9.25
2019-05-22T17:59:29.926Z,11.83
2019-05-22T18:01:59.452Z,9.95
2019-05-22T18:04:28.771Z,8.95
2019-05-22T18:06:57.387Z,9.30
2019-05-22T18:09:27.517Z,7.25
2019-05-22T18:11:56.467Z,11.60
2019-05-22T18:14:25.594Z,6.83
2019-05-22T18:16:56.243Z,10.08
2019-05-22T18:19:26.103Z,14.83
2019-05-22T18:21:55.904Z,16.85
2019-05-22T18:24:24.858Z,11.65
2019-05-22T18:26:53.558Z,17.52
2019-05-22T18:29:22.215Z,20.88
2019-05-22T18:31:51.804Z,26.25
2019-05-22T18:34:20.667Z,33.70
2019-05-22T18:36:49.783Z,31.02
2019-05-22T18:39:19.211Z,32.40
2019-05-22T18:41:47.841Z,36.93
2019-05-22T18:44:16.639Z,42.20
2019-05-22T18:46:45.412Z,32.75
2019-05-22T18:49:14.109Z,29.70
2019-05-22T18:51:44.833Z,32.25
2019-05-22T18:54:13.498Z,31.17
2019-05-22T18:56:42.603Z,27.27
2019-05-22T18:59:11.416Z,21.57
2019-05-22T19:01:40.481Z,17.15
2019-05-22T19:04:09.155Z,17.32
2019-05-22T19:06:38.366Z,18.42
2019-05-22T19:09:09.535Z,15.53
2019-05-22T19:11:38.941Z,17.40
2019-05-22T19:14:08.668Z,17.98
2019-05-22T19:16:38.516Z,18.82
2019-05-22T19:19:07.447Z,16.37
2019-05-22T19:21:36.195Z,16.75
2019-05-22T19:24:05.689Z,18.00
2019-05-22T19:26:36.050Z,13.43
2019-05-22T19:29:05.685Z,15.23
2019-05-22T19:31:35.244Z,12.13
2019-05-22T19:34:04.975Z,18.95
2019-05-22T19:36:34.219Z,17.48
2019-05-22T19:39:03.622Z,14.53
2019-05-22T19:41:32.560Z,16.07
2019-05-22T19:44:01.905Z,13.78
2019-05-22T19:46:31.256Z,15.70
2019-05-22T19:49:00.253Z,16.27
2019-05-22T19:51:31.983Z,12.70
2019-05-22T19:54:01.124Z,13.98
2019-05-22T19:56:30.086Z,12.93
2019-05-22T19:58:59.252Z,13.05
2019-05-22T20:01:30.062Z,11.60
2019-05-22T20:03:59.158Z,11.57
2019-05-22T20:06:29.303Z,14.87
2019-05-22T20:08:59.199Z,13.08
2019-05-22T20:11:28.123Z,14.80
2019-05-22T20:13:56.924Z,18.27
2019-05-22T20:16:26.179Z,17.80
2019-05-22T20:18:55.694Z,13.08
2019-05-22T20:21:25.076Z,13.70
2019-05-22T20:23:54.025Z,13.78
2019-05-22T20:26:23.913Z,16.10
2019-05-22T20:28:52.820Z,14.15
2019-05-22T20:31:22.299Z,19.95
2019-05-22T20:33:51.174Z,17.50
2019-05-22T20:36:20.494Z,17.10
2019-05-22T20:38:49.355Z,13.55
2019-05-22T20:41:19.503Z,12.25
2019-05-22T20:43:50.159Z,15.80
2019-05-22T20:46:21.722Z,15.65
2019-05-22T20:48:50.679Z,18.40
2019-05-22T20:51:20.860Z,17.82
2019-05-22T20:53:54.507Z,22.35
2019-05-22T20:56:21.811Z,18.10
2019-05-22T20:58:52.908Z,15.25
2019-05-22T21:01:22.881Z,19.82
2019-05-22T21:03:51.959Z,16.87
2019-05-22T21:06:22.159Z,15.65
2019-05-22T21:08:51.652Z,17.42
2019-05-22T21:11:23.382Z,17.52
2019-05-22T21:13:53.852Z,16.48
2019-05-22T21:16:23.418Z,20.48
2019-05-22T21:18:53.699Z,24.65
2019-05-22T21:21:22.912Z,20.55
2019-05-22T21:23:53.015Z,18.48
2019-05-22T21:26:22.075Z,15.05
2019-05-22T21:28:52.377Z,22.42
2019-05-22T21:31:21.826Z,17.90
2019-05-22T21:33:51.135Z,16.17
2019-05-22T21:36:20.613Z,16.42
2019-05-22T21:38:50.121Z,16.25
2019-05-22T21:41:21.375Z,20.43
2019-05-22T21:43:50.617Z,19.42
2019-05-22T21:46:19.465Z,17.02
2019-05-22T21:48:50.056Z,17.87
2019-05-22T21:51:18.848Z,17.87
2019-05-22T21:53:47.827Z,16.90
2019-05-22T21:56:17.267Z,16.25
2019-05-22T21:58:46.288Z,16.42
2019-05-22T22:01:26.209Z,17.23
2019-05-22T22:04:02.637Z,17.65
2019-05-22T22:06:33.327Z,17.67
2019-05-22T22:09:02.772Z,20.05
2019-05-22T22:11:31.726Z,20.80
2019-05-22T22:14:01.609Z,20.45
2019-05-22T22:16:31.139Z,19.77
2019-05-22T22:18:59.859Z,17.52
2019-05-22T22:21:29.474Z,22.62
2019-05-22T22:23:58.294Z,21.23
2019-05-22T22:26:28.155Z,21.33
2019-05-22T22:28:57.258Z,26.65
2019-05-22T22:31:27.971Z,26.80
2019-05-22T22:33:59.773Z,29.25
2019-05-22T22:36:28.966Z,25.37
2019-05-22T22:38:58.882Z,32.20
2019-05-22T22:41:28.301Z,29.57
2019-05-22T22:43:58.687Z,25.32
2019-05-22T22:46:31.736Z,26.25
2019-05-22T22:49:02.399Z,28.83
2019-05-22T22:51:31.487Z,33.02
2019-05-22T22:54:01.011Z,26.70
2019-05-22T22:56:29.790Z,26.55
2019-05-22T22:58:59.715Z,27.22
2019-05-22T23:01:32.787Z,35.52
2019-05-22T23:04:04.751Z,40.73
2019-05-22T23:06:36.329Z,35.00
2019-05-22T23:09:07.457Z,34.25
2019-05-22T23:11:39.674Z,36.65
2019-05-22T23:14:10.167Z,33.50
2019-05-22T23:16:41.095Z,31.73
2019-05-22T23:19:14.490Z,30.70
2019-05-22T23:21:41.985Z,30.70
2019-05-22T23:24:11.231Z,32.90
2019-05-22T23:26:41.944Z,31.75
2019-05-22T23:29:11.767Z,32.35
2019-05-22T23:31:42.271Z,35.40
2019-05-22T23:34:11.674Z,34.58
2019-05-22T23:36:40.963Z,32.75
2019-05-22T23:39:15.469Z,33.48
2019-05-22T23:41:46.894Z,34.92
2019-05-22T23:44:21.479Z,36.05
2019-05-22T23:46:51.416Z,33.18
2019-05-22T23:49:20.454Z,33.18
2019-05-22T23:51:50.681Z,33.58
2019-05-22T23:54:20.798Z,34.50
2019-05-22T23:56:49.727Z,33.33
2019-05-22T23:59:18.580Z,34.45
